createdAt,value
2018-10-09T00:01:44.782Z,17.07
2018-10-09T00:04:13.582Z,17.06
2018-10-09T00:06:42.452Z,17.08
2018-10-09T00:09:11.267Z,17.06
2018-10-09T00:11:40.159Z,17.05
2018-10-09T00:14:08.972Z,17.02
2018-10-09T00:16:37.971Z,16.96
2018-10-09T00:19:06.755Z,17.02
2018-10-09T00:21:37.158Z,16.99
2018-10-09T00:24:06.161Z,17.02
2018-10-09T00:26:35.092Z,16.97
2018-10-09T00:29:03.883Z,16.95
2018-10-09T00:31:32.723Z,16.94
2018-10-09T00:34:01.514Z,16.96
2018-10-09T00:36:30.425Z,16.97
2018-10-09T00:38:59.252Z,16.93
2018-10-09T00:41:28.296Z,16.92
2018-10-09T00:43:57.331Z,16.87
2018-10-09T00:46:26.189Z,16.91
2018-10-09T00:48:55.039Z,16.90
2018-10-09T00:51:23.910Z,16.86
2018-10-09T00:53:52.703Z,16.89
2018-10-09T00:56:21.580Z,16.87
2018-10-09T00:58:50.378Z,16.86
2018-10-09T01:01:19.338Z,16.85
2018-10-09T01:03:48.121Z,16.87
2018-10-09T01:06:17.978Z,16.91
2018-10-09T01:08:46.780Z,16.90
2018-10-09T01:11:16.711Z,16.84
2018-10-09T01:13:45.530Z,16.87
2018-10-09T01:16:14.420Z,16.87
2018-10-09T01:18:43.243Z,16.83
2018-10-09T01:21:12.176Z,16.82
2018-10-09T01:23:40.977Z,16.86
2018-10-09T01:26:10.007Z,16.82
2018-10-09T01:28:38.788Z,16.79
2018-10-09T01:31:07.636Z,16.76
2018-10-09T01:33:36.456Z,16.78
2018-10-09T01:36:05.327Z,16.74
2018-10-09T01:38:35.374Z,16.79
2018-10-09T01:41:04.190Z,16.75
2018-10-09T01:43:33.172Z,16.74
2018-10-09T01:46:02.023Z,16.75
2018-10-09T01:48:30.908Z,16.73
2018-10-09T01:50:59.768Z,16.70
2018-10-09T01:53:28.701Z,16.63
2018-10-09T01:55:57.767Z,16.60
2018-10-09T01:58:26.733Z,16.58
2018-10-09T02:00:55.628Z,16.65
2018-10-09T02:03:24.470Z,16.60
2018-10-09T02:05:53.333Z,16.62
2018-10-09T02:08:22.250Z,16.59
2018-10-09T02:10:51.062Z,16.58
2018-10-09T02:13:19.933Z,16.61
2018-10-09T02:15:48.782Z,16.55
2018-10-09T02:18:17.607Z,16.56
2018-10-09T02:20:46.471Z,16.50
2018-10-09T02:23:15.327Z,16.52
2018-10-09T02:25:44.364Z,16.45
2018-10-09T02:28:13.196Z,16.48
2018-10-09T02:30:41.995Z,16.50
2018-10-09T02:33:10.888Z,16.48
2018-10-09T02:35:39.879Z,16.42
2018-10-09T02:38:08.774Z,16.53
2018-10-09T02:40:37.616Z,16.49
2018-10-09T02:43:06.651Z,16.54
2018-10-09T02:45:35.497Z,16.74
2018-10-09T02:48:04.492Z,16.92
2018-10-09T02:50:33.405Z,17.13
2018-10-09T02:53:02.259Z,17.30
2018-10-09T02:55:31.057Z,17.44
2018-10-09T02:57:59.973Z,17.68
2018-10-09T03:00:28.763Z,17.78
2018-10-09T03:02:57.743Z,17.98
2018-10-09T03:05:26.615Z,18.08
2018-10-09T03:07:55.427Z,18.14
2018-10-09T03:10:24.298Z,18.24
2018-10-09T03:12:53.103Z,18.41
2018-10-09T03:15:21.977Z,18.55
2018-10-09T03:17:50.766Z,18.64
2018-10-09T03:20:19.805Z,18.77
2018-10-09T03:22:48.590Z,18.79
2018-10-09T03:25:17.456Z,18.92
2018-10-09T03:27:46.500Z,18.94
2018-10-09T03:30:16.389Z,19.00
2018-10-09T03:32:50.926Z,19.20
2018-10-09T03:35:20.929Z,19.14
2018-10-09T03:37:49.778Z,19.17
2018-10-09T03:40:18.559Z,19.29
2018-10-09T03:42:47.395Z,19.34
2018-10-09T03:45:16.178Z,19.40
2018-10-09T03:47:45.077Z,19.42
2018-10-09T03:50:13.849Z,19.38
2018-10-09T03:52:42.719Z,19.47
2018-10-09T03:55:11.466Z,19.58
2018-10-09T03:57:40.335Z,19.65
2018-10-09T04:00:09.442Z,19.70
2018-10-09T04:02:40.330Z,19.74
2018-10-09T04:05:09.267Z,19.75
2018-10-09T04:07:38.247Z,19.73
2018-10-09T04:10:07.054Z,19.77
2018-10-09T04:12:35.947Z,19.75
2018-10-09T04:15:05.613Z,19.79
2018-10-09T04:17:34.527Z,19.84
2018-10-09T04:20:03.349Z,19.80
2018-10-09T04:22:32.327Z,19.88
2018-10-09T04:25:01.198Z,20.00
2018-10-09T04:27:30.066Z,20.09
2018-10-09T04:29:58.853Z,20.05
2018-10-09T04:32:27.765Z,20.03
2018-10-09T04:34:56.566Z,20.22
2018-10-09T04:37:25.357Z,20.13
2018-10-09T04:39:54.530Z,20.08
2018-10-09T04:42:23.398Z,20.04
2018-10-09T04:44:52.259Z,20.14
2018-10-09T04:47:21.207Z,20.22
2018-10-09T04:49:50.051Z,20.25
2018-10-09T04:52:19.016Z,20.37
2018-10-09T04:54:47.987Z,20.16
2018-10-09T04:57:16.871Z,20.08
2018-10-09T04:59:45.690Z,20.09
2018-10-09T05:02:15.541Z,20.02
2018-10-09T05:04:44.346Z,19.90
2018-10-09T05:07:13.243Z,19.68
2018-10-09T05:09:42.068Z,19.87
2018-10-09T05:12:10.958Z,19.83
2018-10-09T05:14:39.747Z,19.74
2018-10-09T05:17:08.875Z,19.62
2018-10-09T05:19:37.691Z,19.50
2018-10-09T05:22:07.179Z,19.48
2018-10-09T05:24:36.212Z,19.50
2018-10-09T05:27:05.163Z,19.32
2018-10-09T05:29:33.967Z,19.17
2018-10-09T05:32:02.814Z,19.12
2018-10-09T05:34:31.841Z,19.01
2018-10-09T05:37:00.703Z,18.85
2018-10-09T05:39:29.498Z,18.73
2018-10-09T05:41:58.718Z,18.62
2018-10-09T05:44:27.538Z,18.48
2018-10-09T05:46:56.354Z,18.38
2018-10-09T05:49:25.255Z,13.67
2018-10-09T05:51:54.280Z,8.05
2018-10-09T05:54:30.228Z,7.65
2018-10-09T05:56:59.018Z,7.62
2018-10-09T05:59:27.988Z,7.37
2018-10-09T06:01:56.933Z,7.25
2018-10-09T06:04:25.830Z,7.64
2018-10-09T06:10:07.323Z,8.78
2018-10-09T06:12:36.119Z,9.11
2018-10-09T06:15:06.180Z,8.77
2018-10-09T06:17:34.932Z,8.67
2018-10-09T06:20:03.794Z,9.17
2018-10-09T06:22:32.532Z,7.37
2018-10-09T06:25:02.385Z,8.33
2018-10-09T06:27:31.363Z,9.51
2018-10-09T06:30:02.119Z,10.17
2018-10-09T06:32:30.893Z,11.34
2018-10-09T06:35:01.855Z,11.19
2018-10-09T06:37:30.624Z,10.20
2018-10-09T06:39:59.547Z,10.30
2018-10-09T06:42:28.317Z,10.43
2018-10-09T06:44:58.169Z,10.65
2018-10-09T06:47:27.187Z,10.99
2018-10-09T06:49:55.989Z,10.32
2018-10-09T06:52:24.720Z,10.30
2018-10-09T06:54:53.601Z,9.82
2018-10-09T06:57:22.271Z,10.31
2018-10-09T06:59:53.158Z,9.87
2018-10-09T07:02:21.893Z,11.00
2018-10-09T07:04:50.764Z,11.53
2018-10-09T07:07:23.897Z,12.67
2018-10-09T07:09:53.549Z,12.89
2018-10-09T07:12:22.358Z,14.29
2018-10-09T07:14:51.113Z,16.45
2018-10-09T07:17:22.596Z,13.92
2018-10-09T07:19:51.348Z,12.75
2018-10-09T07:22:22.179Z,14.33
2018-10-09T07:24:51.065Z,18.12
2018-10-09T07:27:20.881Z,17.20
2018-10-09T07:29:49.656Z,17.15
2018-10-09T07:32:19.476Z,18.50
2018-10-09T07:34:48.227Z,16.64
2018-10-09T07:37:17.077Z,16.14
2018-10-09T07:39:45.821Z,16.81
2018-10-09T07:42:18.328Z,16.47
2018-10-09T07:44:47.129Z,17.91
2018-10-09T07:47:15.922Z,16.67
2018-10-09T07:49:44.811Z,16.39
2018-10-09T07:52:13.679Z,15.10
2018-10-09T07:54:42.445Z,14.94
2018-10-09T07:57:12.305Z,15.01
2018-10-09T07:59:41.073Z,17.67
2018-10-09T08:02:09.837Z,17.76
2018-10-09T08:04:38.623Z,17.75
2018-10-09T08:07:09.385Z,18.33
2018-10-09T08:09:38.144Z,18.06
2018-10-09T08:12:07.047Z,18.43
2018-10-09T08:14:35.806Z,20.93
2018-10-09T08:17:04.653Z,21.43
2018-10-09T08:19:33.461Z,22.74
2018-10-09T08:22:02.358Z,23.42
2018-10-09T08:24:31.081Z,21.88
2018-10-09T08:26:59.895Z,23.67
2018-10-09T08:29:28.663Z,26.78
2018-10-09T08:31:58.473Z,25.44
2018-10-09T08:34:27.219Z,23.41
2018-10-09T08:36:56.187Z,24.96
2018-10-09T08:39:24.956Z,25.59
2018-10-09T08:41:53.804Z,26.97
2018-10-09T08:44:22.569Z,28.24
2018-10-09T08:46:52.365Z,28.64
2018-10-09T08:49:21.157Z,24.73
2018-10-09T08:51:50.035Z,23.00
2018-10-09T08:54:18.725Z,22.54
2018-10-09T08:56:47.489Z,24.50
2018-10-09T08:59:16.249Z,24.66
2018-10-09T09:01:45.090Z,23.16
2018-10-09T09:04:13.885Z,27.28
2018-10-09T09:06:42.680Z,22.49
2018-10-09T09:09:12.189Z,26.26
2018-10-09T09:11:41.985Z,30.07
2018-10-09T09:14:10.823Z,32.03
2018-10-09T09:16:39.567Z,29.99
2018-10-09T09:19:08.352Z,32.41
2018-10-09T09:21:39.255Z,32.32
2018-10-09T09:24:08.197Z,31.07
2018-10-09T09:26:42.924Z,26.52
2018-10-09T09:29:11.660Z,27.28
2018-10-09T09:31:42.445Z,30.20
2018-10-09T09:34:11.345Z,25.16
2018-10-09T09:36:40.141Z,24.62
2018-10-09T09:39:09.836Z,24.94
2018-10-09T09:41:40.609Z,25.39
2018-10-09T09:44:10.595Z,27.74
2018-10-09T09:46:39.386Z,29.81
2018-10-09T09:49:09.210Z,32.37
2018-10-09T09:51:38.005Z,29.72
2018-10-09T09:54:07.922Z,31.59
2018-10-09T09:56:36.703Z,30.10
2018-10-09T09:59:07.904Z,30.02
2018-10-09T10:01:42.720Z,28.56
2018-10-09T10:04:12.501Z,28.70
2018-10-09T10:06:44.947Z,34.03
2018-10-09T10:09:13.749Z,34.87
2018-10-09T10:11:43.641Z,28.37
2018-10-09T10:14:12.804Z,24.66
2018-10-09T10:16:41.857Z,25.09
2018-10-09T10:19:10.791Z,27.76
2018-10-09T10:21:40.666Z,28.54
2018-10-09T10:24:11.741Z,27.14
2018-10-09T10:26:40.830Z,25.47
2018-10-09T10:29:10.914Z,26.85
2018-10-09T10:31:39.880Z,29.16
2018-10-09T10:34:10.761Z,28.65
2018-10-09T10:36:46.997Z,27.93
2018-10-09T10:39:15.811Z,30.43
2018-10-09T10:41:44.574Z,29.14
2018-10-09T10:44:13.386Z,29.03
2018-10-09T10:46:47.569Z,28.28
2018-10-09T10:49:16.394Z,26.00
2018-10-09T10:51:45.253Z,26.60
2018-10-09T10:54:14.091Z,30.01
2018-10-09T10:56:50.284Z,29.32
2018-10-09T10:59:22.003Z,29.89
2018-10-09T11:01:52.153Z,32.86
2018-10-09T11:04:20.951Z,29.72
2018-10-09T11:06:49.791Z,30.81
2018-10-09T11:09:18.689Z,28.97
2018-10-09T11:11:47.545Z,30.15
2018-10-09T11:14:20.488Z,29.53
2018-10-09T11:16:49.396Z,32.53
2018-10-09T11:19:20.385Z,31.28
2018-10-09T11:21:49.187Z,30.59
2018-10-09T11:24:19.051Z,30.23
2018-10-09T11:26:47.890Z,30.15
2018-10-09T11:29:17.778Z,32.16
2018-10-09T11:31:46.618Z,29.50
2018-10-09T11:34:17.656Z,26.79
2018-10-09T11:36:48.643Z,26.88
2018-10-09T11:39:17.614Z,28.31
2018-10-09T11:41:46.543Z,27.61
2018-10-09T11:44:15.485Z,26.62
2018-10-09T11:46:44.446Z,25.97
2018-10-09T11:49:13.349Z,27.66
2018-10-09T11:51:42.330Z,26.50
2018-10-09T11:54:11.379Z,28.31
2018-10-09T11:56:42.623Z,26.47
2018-10-09T11:59:11.602Z,26.14
2018-10-09T12:01:40.546Z,28.01
2018-10-09T12:04:09.415Z,26.47
2018-10-09T12:06:39.377Z,25.50
2018-10-09T12:09:10.580Z,25.23
2018-10-09T12:11:40.605Z,24.16
2018-10-09T12:14:09.736Z,25.11
2018-10-09T12:16:39.633Z,23.56
2018-10-09T12:19:09.211Z,23.24
2018-10-09T12:21:39.673Z,22.70
2018-10-09T12:24:08.480Z,22.48
2018-10-09T12:26:39.663Z,23.26
2018-10-09T12:29:08.453Z,23.88
2018-10-09T12:31:37.338Z,23.25
2018-10-09T12:34:06.936Z,23.11
2018-10-09T12:36:35.849Z,23.92
2018-10-09T12:39:08.211Z,23.25
2018-10-09T12:41:39.166Z,22.77
2018-10-09T12:44:07.989Z,23.14
2018-10-09T12:46:37.551Z,25.10
2018-10-09T12:49:06.457Z,25.86
2018-10-09T12:51:35.432Z,26.07
2018-10-09T12:54:04.298Z,25.67
2018-10-09T12:56:34.203Z,25.11
2018-10-09T12:59:03.051Z,24.39
2018-10-09T13:01:31.954Z,23.46
2018-10-09T13:04:00.759Z,24.32
2018-10-09T13:06:30.850Z,24.70
2018-10-09T13:08:59.813Z,24.23
2018-10-09T13:11:28.889Z,22.72
2018-10-09T13:13:57.709Z,21.67
2018-10-09T13:16:33.809Z,22.16
2018-10-09T13:19:02.755Z,21.55
2018-10-09T13:21:33.982Z,21.66
2018-10-09T13:24:02.509Z,21.97
2018-10-09T13:26:38.808Z,21.60
2018-10-09T13:29:07.619Z,22.13
2018-10-09T13:31:36.504Z,21.79
2018-10-09T13:34:05.391Z,21.30
2018-10-09T13:36:34.220Z,21.56
2018-10-09T13:39:03.027Z,21.62
2018-10-09T13:41:31.910Z,21.31
2018-10-09T13:44:00.812Z,21.06
2018-10-09T13:46:30.681Z,21.06
2018-10-09T13:48:59.487Z,21.22
2018-10-09T13:51:31.139Z,20.88
2018-10-09T13:53:59.943Z,20.97
2018-10-09T13:56:32.699Z,20.96
2018-10-09T13:59:01.643Z,20.65
2018-10-09T14:01:33.926Z,20.77
2018-10-09T14:04:02.711Z,20.92
2018-10-09T14:06:33.685Z,20.91
2018-10-09T14:09:02.614Z,20.97
2018-10-09T14:11:31.618Z,20.62
2018-10-09T14:14:00.542Z,21.00
2018-10-09T14:16:29.476Z,20.60
2018-10-09T14:18:58.401Z,20.61
2018-10-09T14:21:27.339Z,20.53
2018-10-09T14:23:56.376Z,20.14
2018-10-09T14:26:25.679Z,19.93
2018-10-09T14:28:54.707Z,19.84
2018-10-09T14:31:23.604Z,19.93
2018-10-09T14:33:52.545Z,19.88
2018-10-09T14:36:21.484Z,19.80
2018-10-09T14:38:50.300Z,19.96
2018-10-09T14:41:19.237Z,19.92
2018-10-09T14:43:48.074Z,19.77
2018-10-09T14:46:18.684Z,19.99
2018-10-09T14:48:47.616Z,20.08
2018-10-09T14:51:16.515Z,19.96
2018-10-09T14:53:45.484Z,19.96
2018-10-09T14:56:14.488Z,20.02
2018-10-09T14:58:43.463Z,19.95
2018-10-09T15:01:12.397Z,19.78
2018-10-09T15:03:42.366Z,19.72
2018-10-09T15:06:11.365Z,19.81
2018-10-09T15:08:40.706Z,19.63
2018-10-09T15:11:09.772Z,19.83
2018-10-09T15:13:38.678Z,19.74
2018-10-09T15:16:07.582Z,19.62
2018-10-09T15:18:36.585Z,19.47
2018-10-09T15:21:06.971Z,19.49
2018-10-09T15:23:36.154Z,19.67
2018-10-09T15:26:10.221Z,19.50
2018-10-09T15:28:39.113Z,19.51
2018-10-09T15:31:09.283Z,19.30
2018-10-09T15:33:38.118Z,19.18
2018-10-09T15:36:07.001Z,19.02
2018-10-09T15:38:35.797Z,19.03
2018-10-09T15:41:04.673Z,18.88
2018-10-09T15:43:33.546Z,18.75
2018-10-09T15:46:03.396Z,18.79
2018-10-09T15:48:32.209Z,18.75
2018-10-09T15:51:02.079Z,18.65
2018-10-09T15:53:30.867Z,18.50
2018-10-09T15:55:59.714Z,18.30
2018-10-09T15:58:28.611Z,18.07
2018-10-09T16:00:58.449Z,17.96
2018-10-09T16:03:27.263Z,17.92
2018-10-09T16:05:58.143Z,17.76
2018-10-09T16:08:26.970Z,17.56
2018-10-09T16:10:55.758Z,17.54
2018-10-09T16:13:24.561Z,17.60
2018-10-09T16:15:53.299Z,17.58
2018-10-09T16:18:22.109Z,17.47
2018-10-09T16:20:52.176Z,17.45
2018-10-09T16:23:31.056Z,17.21
2018-10-09T16:25:59.836Z,16.93
2018-10-09T16:28:30.789Z,17.03
2018-10-09T16:30:59.902Z,16.92
2018-10-09T16:33:30.754Z,16.54
2018-10-09T16:35:59.579Z,16.46
2018-10-09T16:38:29.437Z,16.32
2018-10-09T16:40:58.258Z,16.46
2018-10-09T16:43:27.225Z,16.32
2018-10-09T16:45:56.033Z,16.27
2018-10-09T16:48:24.817Z,16.36
2018-10-09T16:50:53.568Z,16.46
2018-10-09T16:53:22.470Z,16.23
2018-10-09T16:55:51.249Z,16.01
2018-10-09T16:58:21.304Z,16.11
2018-10-09T17:00:50.166Z,15.96
2018-10-09T17:03:19.034Z,15.87
2018-10-09T17:05:47.876Z,15.66
2018-10-09T17:08:18.797Z,15.75
2018-10-09T17:10:47.571Z,15.66
2018-10-09T17:13:16.478Z,15.46
2018-10-09T17:15:45.706Z,15.49
2018-10-09T17:18:14.585Z,15.53
2018-10-09T17:20:45.485Z,15.37
2018-10-09T17:23:18.301Z,15.30
2018-10-09T17:25:47.137Z,15.19
2018-10-09T17:28:16.280Z,15.17
2018-10-09T17:30:45.108Z,15.13
2018-10-09T17:33:14.131Z,15.06
2018-10-09T17:35:43.141Z,14.95
2018-10-09T17:38:12.015Z,14.93
2018-10-09T17:40:41.138Z,14.77
2018-10-09T17:43:10.354Z,14.69
2018-10-09T17:45:39.227Z,14.78
2018-10-09T17:48:09.220Z,14.71
2018-10-09T17:50:38.164Z,14.73
2018-10-09T17:53:08.066Z,14.70
2018-10-09T17:55:36.973Z,14.61
2018-10-09T17:58:10.389Z,14.62
2018-10-09T18:00:39.153Z,14.59
2018-10-09T18:03:07.986Z,14.50
2018-10-09T18:05:37.856Z,14.51
2018-10-09T18:08:08.523Z,14.48
2018-10-09T18:10:38.612Z,14.40
2018-10-09T18:16:15.437Z,14.29
2018-10-09T18:18:59.134Z,14.25
2018-10-09T18:21:48.835Z,14.30
2018-10-09T18:24:34.924Z,14.27
2018-10-09T18:27:05.642Z,14.20
2018-10-09T18:29:34.413Z,14.21
2018-10-09T18:32:04.281Z,14.13
2018-10-09T18:34:33.074Z,14.06
2018-10-09T18:37:01.944Z,14.01
2018-10-09T18:39:30.876Z,13.92
2018-10-09T18:42:00.821Z,13.92
2018-10-09T18:44:32.798Z,13.94
2018-10-09T18:47:02.756Z,13.77
2018-10-09T18:49:33.544Z,13.84
2018-10-09T18:52:02.338Z,13.88
2018-10-09T18:54:36.791Z,13.94
2018-10-09T18:57:05.534Z,13.91
2018-10-09T18:59:34.542Z,13.82
2018-10-09T19:02:50.528Z,13.64
2018-10-09T19:05:26.748Z,13.69
2018-10-09T19:07:56.571Z,13.68
2018-10-09T19:10:25.368Z,13.62
2018-10-09T19:12:56.240Z,13.45
2018-10-09T19:15:28.842Z,13.58
2018-10-09T19:17:59.794Z,13.42
2018-10-09T19:20:43.634Z,13.48
2018-10-09T19:23:15.586Z,13.55
2018-10-09T19:29:04.740Z,13.38
2018-10-09T19:31:33.707Z,13.36
2018-10-09T19:34:02.481Z,13.39
2018-10-09T19:36:34.092Z,13.28
2018-10-09T19:39:04.540Z,13.18
2018-10-09T19:41:33.342Z,13.10
2018-10-09T19:44:02.242Z,13.14
2018-10-09T19:46:30.973Z,16.24
2018-10-09T19:48:59.834Z,19.13
2018-10-09T19:51:28.781Z,20.27
2018-10-09T19:53:57.528Z,20.71
2018-10-09T19:56:26.290Z,20.85
2018-10-09T19:58:55.452Z,20.87
2018-10-09T20:01:24.249Z,20.86
2018-10-09T20:03:53.041Z,20.77
2018-10-09T20:06:21.828Z,20.71
2018-10-09T20:08:50.585Z,20.64
2018-10-09T20:11:19.471Z,20.58
2018-10-09T20:13:48.308Z,20.54
2018-10-09T20:16:17.149Z,20.48
2018-10-09T20:18:45.967Z,20.45
2018-10-09T20:21:14.717Z,20.46
2018-10-09T20:23:43.568Z,20.40
2018-10-09T20:26:12.289Z,20.40
2018-10-09T20:28:41.120Z,20.34
2018-10-09T20:31:09.866Z,20.30
2018-10-09T20:33:38.713Z,20.21
2018-10-09T20:36:07.528Z,20.19
2018-10-09T20:38:36.358Z,20.12
2018-10-09T20:41:05.108Z,20.06
2018-10-09T20:43:33.996Z,20.00
2018-10-09T20:46:02.887Z,19.96
2018-10-09T20:48:31.761Z,19.93
2018-10-09T20:51:00.572Z,19.84
2018-10-09T20:53:29.498Z,19.84
2018-10-09T20:55:58.248Z,19.80
2018-10-09T20:58:26.982Z,19.77
2018-10-09T21:00:55.741Z,19.73
2018-10-09T21:03:24.848Z,19.71
2018-10-09T21:05:53.688Z,19.67
2018-10-09T21:08:22.436Z,19.66
2018-10-09T21:10:51.184Z,19.61
2018-10-09T21:13:20.057Z,19.60
2018-10-09T21:15:48.864Z,19.56
2018-10-09T21:18:17.816Z,19.54
2018-10-09T21:20:46.555Z,19.49
2018-10-09T21:23:15.417Z,19.48
2018-10-09T21:25:44.224Z,19.44
2018-10-09T21:28:13.229Z,19.42
2018-10-09T21:30:41.932Z,19.41
2018-10-09T21:33:10.972Z,19.41
2018-10-09T21:35:39.780Z,19.37
2018-10-09T21:38:08.560Z,19.35
2018-10-09T21:40:37.293Z,19.32
2018-10-09T21:43:06.165Z,19.30
2018-10-09T21:45:34.952Z,19.27
2018-10-09T21:48:04.720Z,19.27
2018-10-09T21:50:33.471Z,19.27
2018-10-09T21:53:02.324Z,19.26
2018-10-09T21:55:31.136Z,19.24
2018-10-09T21:58:00.003Z,19.21
2018-10-09T22:00:28.743Z,19.19
2018-10-09T22:02:57.548Z,19.19
2018-10-09T22:05:26.293Z,19.17
2018-10-09T22:07:55.164Z,19.15
2018-10-09T22:10:24.015Z,19.13
2018-10-09T22:12:52.803Z,19.14
2018-10-09T22:15:21.540Z,19.12
2018-10-09T22:17:50.468Z,19.12
2018-10-09T22:20:19.188Z,19.10
2018-10-09T22:22:48.292Z,19.09
2018-10-09T22:25:17.241Z,19.08
2018-10-09T22:27:46.036Z,19.06
2018-10-09T22:30:14.780Z,19.04
2018-10-09T22:32:43.559Z,19.04
2018-10-09T22:35:12.348Z,19.02
2018-10-09T22:37:41.110Z,19.03
2018-10-09T22:40:09.864Z,19.01
2018-10-09T22:42:38.708Z,18.99
2018-10-09T22:45:07.496Z,18.98
2018-10-09T22:47:36.355Z,18.96
2018-10-09T22:50:05.081Z,18.96
2018-10-09T22:52:33.872Z,18.96
2018-10-09T22:55:02.644Z,18.94
2018-10-09T22:57:31.451Z,18.91
2018-10-09T23:00:00.188Z,18.91
2018-10-09T23:02:28.999Z,18.89
2018-10-09T23:04:57.792Z,18.88
2018-10-09T23:07:26.680Z,18.87
2018-10-09T23:09:55.496Z,18.84
2018-10-09T23:12:24.288Z,18.84
2018-10-09T23:14:53.083Z,18.82
2018-10-09T23:17:21.889Z,18.84
2018-10-09T23:19:50.724Z,18.81
2018-10-09T23:22:19.493Z,18.80
2018-10-09T23:24:48.407Z,18.79
2018-10-09T23:27:17.251Z,18.77
2018-10-09T23:29:46.429Z,18.77
2018-10-09T23:32:15.217Z,18.74
2018-10-09T23:34:44.005Z,18.72
2018-10-09T23:37:12.811Z,18.71
2018-10-09T23:39:41.671Z,18.71
2018-10-09T23:42:10.410Z,18.70
2018-10-09T23:44:39.264Z,18.68
2018-10-09T23:47:08.128Z,18.67
2018-10-09T23:49:36.932Z,18.64
2018-10-09T23:52:05.816Z,18.64
2018-10-09T23:54:34.576Z,18.65
2018-10-09T23:57:03.307Z,18.64
2018-10-09T23:59:32.092Z,18.63
